KRVS

Richard Lloyd Jones Jr Airport

Tulsa, Oklahoma, USA
KRVS 200102Z 2001/2024 18005KT P6SM BKN006 BKN012 FM200400 VRB02KT P6SM SCT025 TEMPO 2006/2008 1SM BR FM200800 36004KT P6SM SKC FM201700 01009KT P6SM SKC
Issued Valid From Valid To
Oct-20 @ 01:02 UTC
(2 hours ago)
Oct-20 @ 01:00 UTC
(2 hours ago)
Oct-21 @ 00:00 UTC
(in 21 hours)
Oct-20 @ 01:00 to Oct-20 @ 04:00
KRVS 200102Z 2001/2024 18005KT P6SM BKN006 BKN012
Wind Visibility Clouds
180° at 5 knots Greater than 6 miles
  • Broken at 600' AGL
  • Broken at 1,200' AGL
From Oct-20 @ 04:00 to Oct-20 @ 08:00
FM200400 VRB02KT P6SM SCT025
Wind Visibility Clouds
Variable at 2 knots Greater than 6 miles
  • Scattered at 2,500' AGL
Temporary Oct-20 @ 06:00 to Oct-20 @ 08:00
TEMPO 2006/2008 1SM BR
Visibility Conditions
1 miles
  • Mist
From Oct-20 @ 08:00 to Oct-20 @ 17:00
FM200800 36004KT P6SM SKC
Wind Visibility Clouds
360° at 4 knots Greater than 6 miles
  • Clear skies
From Oct-20 @ 17:00 to Oct-21 @ 00:00
FM201700 01009KT P6SM SKC
Wind Visibility Clouds
10° at 9 knots Greater than 6 miles
  • Clear skies
KRVS 200102Z 2001/2024 18005KT P6SM BKN006 BKN012 FM200400 VRB02KT P6SM SCT025 TEMPO 2006/2008 1SM BR FM200800 36004KT P6SM SKC FM201700 01009KT P6SM SKC
Issued Oct-20 @ 01:02 UTC
(2 hours ago)
Valid From Oct-20 @ 01:00 UTC
(2 hours ago)
Valid To Oct-21 @ 00:00 UTC
(in 21 hours)
Oct-20 @ 01:00 - Oct-20 @ 04:00
Wind Visibility
180° at 5 knots Greater than 6 miles
Clouds
  • Broken at 600' AGL
  • Broken at 1,200' AGL
From Oct-20 @ 04:00 - Oct-20 @ 08:00
Wind Visibility
Variable at 2 knots Greater than 6 miles
Clouds
  • Scattered at 2,500' AGL
Temporary Oct-20 @ 06:00 - Oct-20 @ 08:00
Conditions
  • Mist
From Oct-20 @ 08:00 - Oct-20 @ 17:00
Wind Visibility
360° at 4 knots Greater than 6 miles
Clouds
  • Clear skies
From Oct-20 @ 17:00 - Oct-21 @ 00:00
Wind Visibility
10° at 9 knots Greater than 6 miles
Clouds
  • Clear skies